Boyd Deep Canyon Reserve, California Weather observations

Data are for 10 minute period ending at time listed.
 Day   Time   Solar   Ave.   Ave.  Ave.  Vector  Max.   Baro.   Total    
  of    of     Rad.   Air    Rel.  Wind   Wind   Wind  Press.  Precip.   
Year   Day            Temp.  Hum.  Speed  Dir.   Gust                    
2015   (PST)  Kw/m2    F      %     mph   deg.    mph    mb.     in.     
-------------------------------------------------------------------------
  28   23:10   0.00   64.0    44    7.2   206    10.4   984.7    0.00 
  28   23:20   0.00   64.0    44    5.9   210     9.7   984.8    0.00 
  28   23:30   0.00   64.1    43    6.9   208    13.4   984.8    0.00 
  28   23:40   0.00   64.2    43    7.6   207    11.1   984.7    0.00 
  28   23:50   0.00   63.7    44    5.8   198     8.3   984.7    0.00 
  29    0:00   0.00   63.7    44    5.5   195     8.6   984.5    0.00 
  29    0:10   0.00   63.5    44    5.2   199     8.3   984.4    0.00 
  29    0:20   0.00   63.5    43    6.3   210    10.2   984.4    0.00 
  29    0:30   0.00   63.7    42    7.9   213    11.5   984.3    0.00 
  29    0:40   0.00   63.5    42    7.4   210     9.9   984.1    0.00 
  29    0:50   0.00   63.4    43    6.7   208    10.7   984.1    0.00 
  29    1:00   0.00   63.3    42    6.2   211    10.2   984.1    0.00 
  29    1:10   0.00   63.4    41    6.7   211    10.9   984.1    0.00 
  29    1:20   0.00   63.3    41    7.1   224    10.2   984.0    0.00 
  29    1:30   0.00   63.1    41    6.3   208     8.8   983.9    0.00 
  29    1:40   0.00   63.4    39    6.7   201     9.4   983.9    0.00 
  29    1:50   0.00   63.4    38    6.3   212     9.9   983.8    0.00 
  29    2:00   0.00   63.3    38    6.7   211    10.7   983.8    0.00 
  29    2:10   0.00   63.3    38    5.7   212     8.4   983.8    0.00 
  29    2:20   0.00   63.2    38    6.2   213     8.8   983.7    0.00 
  29    2:30   0.00   63.3    38    6.8   208     9.4   983.7    0.00 
  29    2:40   0.00   63.4    38    6.6   198     9.3   983.7    0.00 
  29    2:50   0.00   63.4    38    7.0   205     9.4   983.6    0.00 
  29    3:00   0.00   63.4    37    6.3   198     9.8   983.5    0.00 
  29    3:10   0.00   63.9    36    5.1   196     8.6   983.4    0.00 
  29    3:20   0.00   63.6    37    4.5   208     7.1   983.4    0.00 
  29    3:30   0.00   63.6    36    5.3   191     9.1   983.4    0.00 
  29    3:40   0.00   63.2    37    4.8   198     8.3   983.3    0.00 
  29    3:50   0.00   63.2    37    6.6   208     9.3   983.2    0.00 
  29    4:00   0.00   62.8    38    6.3   199     9.6   983.2    0.00 
  29    4:10   0.00   63.1    36    6.0   188     9.0   983.0    0.00 
  29    4:20   0.00   63.0    36    6.2   193     8.6   982.9    0.00 
  29    4:30   0.00   63.3    35    7.0   194     9.9   982.9    0.00 
  29    4:40   0.00   63.2    35    6.2   202     9.4   982.9    0.00 
  29    4:50   0.00   63.2    35    5.8   188     9.8   982.8    0.00 
  29    5:00   0.00   63.3    34    5.4   178     8.8   982.8    0.00 
  29    5:10   0.00   63.2    34    5.7   184     8.5   982.8    0.00 
  29    5:20   0.00   63.5    33    7.3   206    10.6   983.0    0.00 
  29    5:30   0.00   63.5    33    6.2   199     9.2   983.1    0.00 
  29    5:40   0.00   63.5    32    5.7   196     8.9   983.1    0.00 
  29    5:50   0.00   63.4    33    6.3   197     8.8   983.2    0.00 
  29    6:00   0.00   63.0    34    5.5   188     8.8   983.2    0.00 
  29    6:10   0.00   63.2    33    6.9   188    10.3   983.2    0.00 
  29    6:20   0.00   63.2    33    6.6   189    10.6   983.2    0.00 
  29    6:30   0.00   63.2    33    6.9   201    11.1   983.3    0.00 
  29    6:40   0.00   63.4    33    6.1   189    11.6   983.5    0.00 
  29    6:50   0.00   63.6    33    8.2   206    11.8   983.6    0.00 
  29    7:00   0.00   63.6    33    7.7   211    12.1   983.7    0.00 
  29    7:10   0.01   63.4    34    8.0   213    11.5   983.8    0.00 
  29    7:20   0.01   63.7    33    9.3   223    12.8   983.8    0.00 
  29    7:30   0.03   63.6    33    9.2   228    13.5   983.8    0.00 
  29    7:40   0.04   63.9    33    7.9   227    13.1   983.8    0.00 
  29    7:50   0.05   63.9    33    6.8   220    10.2   983.9    0.00 
  29    8:00   0.06   64.1    33    6.7   220     9.7   984.0    0.00 
  29    8:10   0.08   64.5    32    8.1   224    12.4   983.9    0.00 
  29    8:20   0.09   64.7    32    7.4   220    11.6   984.0    0.00 
  29    8:30   0.11   65.2    32    6.6   216    12.1   984.1    0.00 
  29    8:40   0.14   65.6    31    5.9   217     9.6   984.1    0.00 
  29    8:50   0.17   66.3    30    6.2   227     9.6   984.1    0.00 
  29    9:00   0.17   66.7    30    5.3   209     8.3   984.1    0.00 
  29    9:10   0.18   67.1    30    4.8   212     7.2   984.1    0.00 
  29    9:20   0.19   67.5    29    3.8   203     6.4   984.1    0.00 
  29    9:30   0.25   68.4    28    1.7   201     3.3   984.1    0.00 
  29    9:40   0.32   70.6    27    0.3    36     1.7   984.1    0.00 
  29    9:50   0.29   70.1    29    2.6    14     3.8   984.0    0.00 
  29   10:00   0.31   69.4    30    1.7    15     3.5   984.0    0.00 
  29   10:10   0.35   69.5    30    1.4   357     3.4   984.0    0.00 
  29   10:20   0.39   70.0    30    3.1    22     6.6   984.0    0.00 
  29   10:30   0.45   69.7    30    2.4   353     5.1   984.1    0.00 
  29   10:40   0.38   71.0    29    0.4   231     1.5   983.9    0.00 
  29   10:50   0.60   71.4    29    1.5     8     5.3   983.7    0.00 
  29   11:00   0.51   71.3    29    2.2   350     4.6   983.6    0.00 
  29   11:10   0.49   71.3    29    2.6    20     4.8   983.3    0.00 
  29   11:20   0.33   70.7    30    2.8    25     5.4   983.2    0.00 
  29   11:30   0.35   71.1    29    1.3   358     4.3   983.0    0.00 
  29   11:40   0.33   71.0    30    3.2    30     4.9   982.9    0.00 
  29   11:50   0.32   70.9    30    2.4    11     4.4   982.7    0.00 
  29   12:00   0.29   71.0    30    2.5    13     4.9   982.6    0.00 
  29   12:10   0.26   70.9    30    3.4    11     5.9   982.3    0.00 
  29   12:20   0.28   71.0    30    2.8    27     4.8   982.1    0.00 
  29   12:30   0.29   70.9    30    3.8    16     5.7   981.9    0.00 
  29   12:40   0.26   70.8    30    4.3     4     6.4   981.7    0.00 
  29   12:50   0.29   70.7    30    2.8     6     5.7   981.5    0.00 
  29   13:00   0.23   70.9    30    2.9    10     5.1   981.3    0.00 
  29   13:10   0.22   70.8    30    2.1    36     4.3   981.1    0.00 
  29   13:20   0.22   71.0    30    2.6    18     4.3   981.0    0.00 
  29   13:30   0.24   70.9    29    3.5     7     5.8   980.9    0.00 
  29   13:40   0.23   71.0    29    2.7     9     4.8   980.9    0.00 
  29   13:50   0.20   70.9    29    2.3   356     3.7   980.8    0.00 
  29   14:00   0.19   71.3    29    2.3    13     4.4   980.8    0.00 
  29   14:10   0.19   71.0    28    2.3     3     4.4   980.7    0.00 
  29   14:20   0.16   71.0    28    2.7   349     4.8   980.6    0.00 
  29   14:30   0.14   70.8    28    2.1   347     3.9   980.6    0.00 
  29   14:40   0.14   71.1    28    1.3   336     2.6   980.6    0.00 
  29   14:50   0.11   71.2    27    0.6    10     1.8   980.6    0.00 
  29   15:00   0.10   71.0    28    1.5    18     2.3   980.7    0.00 
  29   15:10   0.09   70.9    28    1.5    28     2.4   980.7    0.00 
  29   15:20   0.08   70.7    29    3.1     3     4.6   980.7    0.00 
  29   15:30   0.08   70.4    30    3.3   349     4.7   980.7    0.00 
  29   15:40   0.07   70.3    30    2.5   349     3.3   980.6    0.00 
  29   15:50   0.05   70.2    30    2.2   341     2.8   980.6    0.00 
  29   16:00   0.05   70.2    31    1.5   358     2.8   980.6    0.00 
  29   16:10   0.04   69.9    33    1.5    20     2.6   980.5    0.00 
  29   16:20   0.03   69.7    33    0.5   100     1.6   980.4    0.00 
  29   16:30   0.03   69.7    32    0.1   339     1.1   980.4    0.00 
  29   16:40   0.02   69.4    35    1.6    25     3.7   980.3    0.00 
  29   16:50   0.01   68.8    38    1.6    47     2.8   980.3    0.00 
  29   17:00   0.00   68.4    39    0.3    46     1.2   980.3    0.00 
  29   17:10   0.00   68.2    38    0.3    56     1.5   980.3    0.00 
  29   17:20   0.00   67.8    40    1.6   185     3.8   980.3    0.00 
  29   17:30   0.00   67.6    40    2.8   194     4.1   980.3    0.00 
  29   17:40   0.00   67.5    39    3.1   205     3.9   980.4    0.00 
  29   17:50   0.00   67.7    37    4.0   203     5.1   980.5    0.00 
  29   18:00   0.00   68.2    32    5.4   226    17.4   980.7    0.00 
  29   18:10   0.00   67.7    33    4.0   261    15.7   980.9    0.00 
  29   18:20   0.00   66.8    38    7.8   198    11.8   981.1    0.00 
  29   18:30   0.00   65.8    41   10.7   179    15.3   981.3    0.00 
  29   18:40   0.00   64.5    48   10.6   188    15.5   981.4    0.00 
  29   18:50   0.00   63.4    51    9.9   189    14.2   981.5    0.00 
  29   19:00   0.00   63.2    55    9.2   212    17.0   981.6    0.00 
  29   19:10   0.00   63.0    55   10.1   207    14.2   981.6    0.00 
  29   19:20   0.00   63.2    50   10.8   187    15.4   981.4    0.00 
  29   19:30   0.00   63.6    49    8.9   191    13.4   981.4    0.00 
  29   19:40   0.00   63.2    50    9.2   198    13.2   981.5    0.00 
  29   19:50   0.00   63.5    48    8.8   204    14.0   981.6    0.00 
  29   20:00   0.00   63.4    49    9.1   214    16.1   981.7    0.00 
  29   20:10   0.00   63.1    50    8.6   197    13.7   981.7    0.00 
  29   20:20   0.00   63.6    47   10.1   182    14.5   981.7    0.00 
  29   20:30   0.00   63.6    46    8.2   190    12.1   981.7    0.00 
  29   20:40   0.00   63.5    47    6.6   205    10.5   981.7    0.00 
  29   20:50   0.00   63.3    48    7.7   217    11.8   981.7    0.00 
  29   21:00   0.00   63.4    48    9.9   208    12.9   981.7    0.00 
  29   21:10   0.00   63.2    49    8.2   222    12.4   981.8    0.00 
  29   21:20   0.00   63.0    49    9.2   210    13.2   981.8    0.00 
  29   21:30   0.00   62.8    50   10.2   211    14.5   981.6    0.00 
  29   21:40   0.00   63.3    46   11.3   181    16.7   981.5    0.00 
  29   21:50   0.00   62.9    49    8.4   201    11.8   981.3    0.00 
  29   22:00   0.00   62.6    50    8.6   214    13.3   981.2    0.00 
  29   22:10   0.00   62.7    49    8.8   226    12.7   981.2    0.00 
  29   22:20   0.00   62.7    49    7.0   205    10.4   981.2    0.00 
  29   22:30   0.00   62.9    47    8.3   191    12.3   981.1    0.00 
  29   22:40   0.00   63.1    46   13.0   177    17.3   980.9    0.00 
  29   22:50   0.00   63.0    46    8.1   190    13.6   980.9    0.00 
  29   23:00   0.00   62.7    47    6.8   199    10.7   980.9    0.00 

Return to Boyd Deep Canyon Reserve graphs page.


Western Regional Climate Center,wrcc@dri.edu